Alma, West Virginia
Current Conditions -  °F | °C
As of 5:53 AM on Sunday 26 Oct 2014 (Local Time) from KPKB Reporting Station
Clear Clear  
Wind Chill: 46°   Ceiling: Unl
Heat Index: 49°   Visibility: 10mi
Dew Point: 37°   Wind: 7mph
Humidity: 64%   Direction: 280°W
Pressure: 29.93"   Gusts: NA
Location:  39.43°N, 80.84°W
Report Text: KPKB 260953Z AUTO 28006KT 10SM CLR 09/03 A2993 RMK AO2 SLP134 T00940028
Loading
Personal Weather Stations






























Interactive Weather Map
Tropical Storm Tracking
New forecast layout! Learn more

10-Day Weather Forecast

Advertisements
Track Severe Weather on mobile